KJNX

Johnston Regional Airport

Smithfield, North Carolina, USA
METAR KJNX 180255Z AUTO 00000KT 10SM OVC044 08/05 A3021 RMK AO2
Observed Flight Rules
Dec-18 @ 02:55 UTC (9 minutes ago) Visual Flight Rules
Wind Visibility Clouds
Calm 10 miles
  • Overcast at 4,400' AGL
Temperatures Readings
Current 8°C / 46°F
Dewpoint 5°C / 41°F
Humidity 82%
Altimeter 30.21" Hg
Pressure 1023 hPa
Elevation 50
METAR KJNX 180255Z AUTO 00000KT 10SM OVC044 08/05 A3021 RMK AO2
Observed Flight Rules
Dec-18 @ 02:55 UTC
(9 minutes ago)
VFR
Wind Visibility
Calm 10 miles
Clouds
  • Overcast at 4,400' AGL
Temperature Dewpoint
8°C / 46°F 5°C / 41°F
Humidity Altimeter Pressure
82% 30.21" Hg 1023 hPa